createdAt,value
2018-06-05T00:01:43.869Z,18.60
2018-06-05T00:04:11.413Z,18.60
2018-06-05T00:06:38.965Z,18.60
2018-06-05T00:09:07.177Z,18.40
2018-06-05T00:11:35.401Z,18.40
2018-06-05T00:14:02.964Z,18.30
2018-06-05T00:16:30.501Z,18.20
2018-06-05T00:18:58.049Z,18.10
2018-06-05T00:21:25.610Z,18.00
2018-06-05T00:23:53.164Z,18.00
2018-06-05T00:26:20.719Z,18.00
2018-06-05T00:28:48.268Z,18.00
2018-06-05T00:31:15.810Z,18.00
2018-06-05T00:33:43.333Z,18.00
2018-06-05T00:36:10.877Z,18.10
2018-06-05T00:38:38.410Z,18.00
2018-06-05T00:41:06.001Z,18.10
2018-06-05T00:43:33.533Z,18.10
2018-06-05T00:46:01.071Z,18.20
2018-06-05T00:48:28.609Z,18.10
2018-06-05T00:50:56.164Z,18.10
2018-06-05T00:53:23.718Z,18.10
2018-06-05T00:55:51.865Z,18.00
2018-06-05T00:58:19.406Z,17.80
2018-06-05T01:00:46.959Z,17.70
2018-06-05T01:03:14.505Z,17.60
2018-06-05T01:05:42.041Z,17.50
2018-06-05T01:08:09.598Z,17.40
2018-06-05T01:10:37.166Z,17.40
2018-06-05T01:13:04.732Z,17.30
2018-06-05T01:15:32.285Z,17.30
2018-06-05T01:17:59.816Z,17.20
2018-06-05T01:20:27.357Z,17.20
2018-06-05T01:22:54.945Z,17.20
2018-06-05T01:25:22.554Z,17.10
2018-06-05T01:27:50.095Z,17.10
2018-06-05T01:30:17.620Z,17.00
2018-06-05T01:32:45.166Z,17.00
2018-06-05T01:35:12.717Z,17.00
2018-06-05T01:37:40.263Z,17.00
2018-06-05T01:40:07.806Z,17.00
2018-06-05T01:42:35.357Z,16.90
2018-06-05T01:45:02.934Z,16.90
2018-06-05T01:47:30.478Z,16.90
2018-06-05T01:49:58.029Z,16.80
2018-06-05T01:52:25.597Z,16.80
2018-06-05T01:54:53.129Z,16.70
2018-06-05T01:57:20.687Z,16.70
2018-06-05T01:59:48.225Z,16.60
2018-06-05T02:02:15.771Z,16.50
2018-06-05T02:04:43.320Z,16.50
2018-06-05T02:07:10.874Z,16.40
2018-06-05T02:09:38.421Z,16.40
2018-06-05T02:12:05.973Z,16.40
2018-06-05T02:14:33.545Z,16.30
2018-06-05T02:17:01.102Z,16.30
2018-06-05T02:19:28.660Z,16.30
2018-06-05T02:21:56.237Z,16.30
2018-06-05T02:24:23.775Z,16.20
2018-06-05T02:26:51.329Z,16.20
2018-06-05T02:29:18.921Z,16.30
2018-06-05T02:31:46.475Z,16.20
2018-06-05T02:34:14.053Z,16.20
2018-06-05T02:36:41.571Z,16.30
2018-06-05T02:39:09.404Z,16.30
2018-06-05T02:41:36.969Z,16.40
2018-06-05T02:44:04.529Z,16.40
2018-06-05T02:46:32.081Z,16.40
2018-06-05T02:48:59.645Z,16.40
2018-06-05T02:51:27.183Z,16.50
2018-06-05T02:53:54.731Z,16.50
2018-06-05T02:56:22.286Z,16.60
2018-06-05T02:58:49.829Z,16.60
2018-06-05T03:01:17.420Z,16.70
2018-06-05T03:03:44.929Z,16.80
2018-06-05T03:06:12.477Z,16.80
2018-06-05T03:08:40.785Z,16.80
2018-06-05T03:11:08.528Z,16.80
2018-06-05T03:13:36.087Z,16.80
2018-06-05T03:16:03.682Z,16.90
2018-06-05T03:18:31.234Z,16.80
2018-06-05T03:20:58.790Z,16.80
2018-06-05T03:23:26.327Z,16.80
2018-06-05T03:25:53.865Z,16.80
2018-06-05T03:28:21.414Z,16.80
2018-06-05T03:30:48.971Z,16.90
2018-06-05T03:33:16.533Z,16.90
2018-06-05T03:35:44.093Z,17.00
2018-06-05T03:38:11.689Z,16.90
2018-06-05T03:40:39.243Z,16.90
2018-06-05T03:43:06.813Z,17.00
2018-06-05T03:45:34.369Z,17.00
2018-06-05T03:48:01.934Z,17.10
2018-06-05T03:50:29.484Z,17.30
2018-06-05T03:52:57.030Z,17.40
2018-06-05T03:55:24.573Z,17.40
2018-06-05T03:57:52.103Z,17.50
2018-06-05T04:00:19.656Z,17.60
2018-06-05T04:02:47.205Z,17.70
2018-06-05T04:05:14.778Z,17.80
2018-06-05T04:07:42.349Z,18.00
2018-06-05T04:10:09.953Z,18.10
2018-06-05T04:12:37.485Z,18.10
2018-06-05T04:15:05.041Z,18.10
2018-06-05T04:17:32.570Z,18.10
2018-06-05T04:20:00.102Z,18.10
2018-06-05T04:22:27.645Z,18.10
2018-06-05T04:24:55.202Z,18.10
2018-06-05T04:27:22.755Z,18.10
2018-06-05T04:29:50.309Z,18.10
2018-06-05T04:32:17.897Z,18.20
2018-06-05T04:34:45.450Z,18.30
2018-06-05T04:37:12.985Z,18.40
2018-06-05T04:39:40.553Z,18.40
2018-06-05T04:42:08.122Z,18.40
2018-06-05T04:44:35.676Z,18.50
2018-06-05T04:47:03.228Z,18.50
2018-06-05T04:49:30.782Z,18.50
2018-06-05T04:51:58.326Z,18.50
2018-06-05T04:54:25.865Z,18.50
2018-06-05T04:56:53.424Z,18.50
2018-06-05T04:59:20.983Z,18.50
2018-06-05T05:01:48.543Z,18.60
2018-06-05T05:04:16.122Z,18.60
2018-06-05T05:06:43.694Z,18.70
2018-06-05T05:09:11.230Z,18.80
2018-06-05T05:11:38.802Z,18.80
2018-06-05T05:14:06.339Z,18.80
2018-06-05T05:16:33.898Z,18.90
2018-06-05T05:19:01.442Z,19.00
2018-06-05T05:21:50.258Z,18.90
2018-06-05T05:24:17.800Z,19.00
2018-06-05T05:26:45.366Z,19.00
2018-06-05T05:29:12.904Z,19.00
2018-06-05T05:31:40.470Z,19.00
2018-06-05T05:34:08.041Z,19.00
2018-06-05T05:36:35.594Z,19.00
2018-06-05T05:39:04.565Z,19.10
2018-06-05T05:41:32.123Z,19.10
2018-06-05T05:43:59.665Z,19.10
2018-06-05T05:46:27.257Z,19.20
2018-06-05T05:48:54.794Z,19.30
2018-06-05T05:51:22.342Z,19.30
2018-06-05T05:53:49.899Z,19.40
2018-06-05T05:56:17.710Z,19.50
2018-06-05T05:58:45.282Z,19.70
2018-06-05T06:01:13.117Z,19.70
2018-06-05T06:03:40.691Z,19.80
2018-06-05T06:06:08.269Z,19.80
2018-06-05T06:08:35.810Z,19.80
2018-06-05T06:11:03.371Z,19.90
2018-06-05T06:13:30.973Z,20.20
2018-06-05T06:18:26.158Z,21.00
2018-06-05T06:20:53.752Z,21.20
2018-06-05T06:23:21.317Z,21.40
2018-06-05T06:25:48.865Z,21.40
2018-06-05T06:28:16.416Z,21.40
2018-06-05T06:30:43.965Z,21.40
2018-06-05T06:33:11.517Z,21.40
2018-06-05T06:35:39.065Z,21.30
2018-06-05T06:38:06.631Z,21.30
2018-06-05T06:40:34.169Z,21.40
2018-06-05T06:43:01.724Z,21.30
2018-06-05T06:45:29.280Z,21.30
2018-06-05T06:47:56.844Z,21.30
2018-06-05T06:50:24.597Z,21.30
2018-06-05T06:52:52.166Z,21.40
2018-06-05T06:55:19.733Z,21.50
2018-06-05T06:57:47.290Z,21.50
2018-06-05T07:00:14.862Z,21.40
2018-06-05T07:02:44.857Z,21.30
2018-06-05T07:05:12.405Z,21.20
2018-06-05T07:07:39.968Z,21.10
2018-06-05T07:10:10.871Z,21.10
2018-06-05T07:12:38.434Z,21.20
2018-06-05T07:15:05.998Z,21.20
2018-06-05T07:17:34.028Z,21.20
2018-06-05T07:20:01.586Z,21.20
2018-06-05T07:22:29.142Z,21.10
2018-06-05T07:24:56.685Z,21.10
2018-06-05T07:27:24.274Z,21.10
2018-06-05T07:29:51.830Z,21.10
2018-06-05T07:32:19.385Z,21.30
2018-06-05T07:34:46.938Z,21.40
2018-06-05T07:37:14.465Z,21.40
2018-06-05T07:39:42.002Z,21.40
2018-06-05T07:42:09.549Z,21.40
2018-06-05T07:44:37.193Z,21.40
2018-06-05T07:47:04.992Z,21.40
2018-06-05T07:49:32.534Z,21.40
2018-06-05T07:52:00.090Z,21.30
2018-06-05T07:54:27.646Z,21.30
2018-06-05T07:56:55.212Z,21.30
2018-06-05T07:59:22.769Z,21.20
2018-06-05T08:01:50.325Z,21.30
2018-06-05T08:04:17.901Z,21.30
2018-06-05T08:06:45.449Z,21.50
2018-06-05T08:09:13.077Z,21.60
2018-06-05T08:11:40.617Z,21.80
2018-06-05T08:14:08.180Z,22.00
2018-06-05T08:16:35.733Z,22.10
2018-06-05T08:19:03.302Z,22.00
2018-06-05T08:21:37.425Z,21.80
2018-06-05T08:24:05.026Z,21.70
2018-06-05T08:27:03.765Z,21.60
2018-06-05T08:29:31.318Z,21.40
2018-06-05T08:31:58.884Z,21.30
2018-06-05T08:34:26.430Z,21.30
2018-06-05T08:36:53.957Z,21.30
2018-06-05T08:39:21.501Z,21.30
2018-06-05T08:41:49.049Z,21.30
2018-06-05T08:44:16.626Z,21.30
2018-06-05T08:46:44.189Z,21.30
2018-06-05T08:49:11.749Z,21.40
2018-06-05T08:51:39.310Z,21.40
2018-06-05T08:54:06.908Z,21.30
2018-06-05T08:56:34.442Z,21.20
2018-06-05T08:59:01.990Z,21.20
2018-06-05T09:01:35.770Z,21.20
2018-06-05T09:04:03.334Z,21.40
2018-06-05T09:06:47.365Z,21.50
2018-06-05T09:12:33.949Z,21.60
2018-06-05T09:15:06.214Z,21.40
2018-06-05T09:17:33.858Z,21.10
2018-06-05T09:20:01.427Z,21.00
2018-06-05T09:22:29.006Z,21.00
2018-06-05T09:24:57.664Z,21.10
2018-06-05T09:27:25.210Z,21.00
2018-06-05T09:29:52.778Z,21.10
2018-06-05T09:32:20.350Z,21.20
2018-06-05T09:34:47.910Z,21.20
2018-06-05T09:37:15.494Z,21.20
2018-06-05T09:39:43.057Z,21.30
2018-06-05T09:42:14.111Z,21.30
2018-06-05T09:44:41.666Z,21.40
2018-06-05T09:47:09.239Z,21.40
2018-06-05T09:49:36.768Z,21.40
2018-06-05T09:52:05.174Z,21.20
2018-06-05T09:54:32.733Z,21.30
2018-06-05T09:57:30.798Z,21.40
2018-06-05T09:59:58.344Z,21.50
2018-06-05T10:02:25.889Z,21.80
2018-06-05T10:04:53.435Z,22.00
2018-06-05T10:07:20.992Z,22.20
2018-06-05T10:09:48.551Z,22.50
2018-06-05T10:12:16.088Z,23.00
2018-06-05T10:14:43.666Z,23.60
2018-06-05T10:17:11.201Z,24.20
2018-06-05T10:19:38.750Z,24.80
2018-06-05T10:22:06.310Z,25.20
2018-06-05T10:24:33.854Z,25.30
2018-06-05T10:27:01.418Z,25.10
2018-06-05T10:29:28.957Z,24.80
2018-06-05T10:31:56.510Z,24.60
2018-06-05T10:34:24.084Z,24.40
2018-06-05T10:36:51.637Z,24.10
2018-06-05T10:39:19.184Z,24.00
2018-06-05T10:41:46.747Z,24.00
2018-06-05T10:44:14.284Z,24.00
2018-06-05T10:46:41.834Z,23.90
2018-06-05T10:49:09.386Z,23.90
2018-06-05T10:51:36.970Z,23.70
2018-06-05T10:54:04.521Z,23.30
2018-06-05T10:56:32.082Z,23.00
2018-06-05T10:58:59.649Z,22.80
2018-06-05T11:01:27.183Z,22.70
2018-06-05T11:03:54.749Z,22.70
2018-06-05T11:06:22.307Z,22.70
2018-06-05T11:08:49.856Z,22.80
2018-06-05T11:11:17.561Z,22.90
2018-06-05T11:13:45.114Z,23.00
2018-06-05T11:16:12.669Z,23.00
2018-06-05T11:18:40.232Z,22.80
2018-06-05T11:21:07.797Z,22.70
2018-06-05T11:23:35.384Z,22.70
2018-06-05T11:26:02.926Z,22.80
2018-06-05T11:28:30.506Z,22.80
2018-06-05T11:30:58.054Z,22.80
2018-06-05T11:33:25.605Z,23.00
2018-06-05T11:35:53.137Z,23.40
2018-06-05T11:38:20.689Z,23.80
2018-06-05T11:40:48.229Z,24.30
2018-06-05T11:43:15.768Z,24.80
2018-06-05T11:45:43.312Z,25.00
2018-06-05T11:48:10.883Z,25.20
2018-06-05T11:50:38.454Z,25.40
2018-06-05T11:53:06.042Z,25.60
2018-06-05T11:58:01.193Z,26.20
2018-06-05T12:00:28.749Z,26.40
2018-06-05T12:02:56.277Z,26.90
2018-06-05T12:05:23.850Z,27.50
2018-06-05T12:07:51.415Z,27.80
2018-06-05T12:10:18.995Z,27.70
2018-06-05T12:12:46.570Z,27.40
2018-06-05T12:15:14.170Z,27.00
2018-06-05T12:17:41.741Z,26.70
2018-06-05T12:20:09.309Z,26.50
2018-06-05T12:22:36.888Z,26.40
2018-06-05T12:25:04.464Z,26.30
2018-06-05T12:27:32.025Z,26.20
2018-06-05T12:29:59.573Z,26.00
2018-06-05T12:32:27.132Z,25.90
2018-06-05T12:34:54.678Z,26.10
2018-06-05T12:37:22.233Z,26.50
2018-06-05T12:39:49.765Z,26.80
2018-06-05T12:42:17.306Z,26.90
2018-06-05T12:44:44.862Z,26.90
2018-06-05T12:47:12.413Z,26.90
2018-06-05T12:49:39.949Z,27.00
2018-06-05T12:52:07.489Z,27.00
2018-06-05T12:54:35.041Z,27.00
2018-06-05T12:57:02.605Z,27.10
2018-06-05T12:59:30.162Z,27.10
2018-06-05T13:01:57.717Z,26.70
2018-06-05T13:04:25.280Z,26.40
2018-06-05T13:06:52.845Z,26.20
2018-06-05T13:09:20.426Z,26.00
2018-06-05T13:11:48.013Z,25.70
2018-06-05T13:14:15.530Z,25.40
2018-06-05T13:16:43.098Z,25.30
2018-06-05T13:19:10.646Z,25.40
2018-06-05T13:21:38.209Z,25.40
2018-06-05T13:24:05.773Z,25.50
2018-06-05T13:26:33.350Z,25.60
2018-06-05T13:29:00.909Z,25.70
2018-06-05T13:31:28.469Z,25.90
2018-06-05T13:33:56.017Z,26.10
2018-06-05T13:36:23.566Z,26.20
2018-06-05T13:38:51.108Z,26.40
2018-06-05T13:41:18.650Z,26.70
2018-06-05T13:43:46.254Z,26.90
2018-06-05T13:46:13.769Z,27.10
2018-06-05T13:48:43.344Z,27.20
2018-06-05T13:51:10.909Z,27.10
2018-06-05T13:53:38.473Z,27.20
2018-06-05T13:56:23.406Z,27.30
2018-06-05T13:58:50.957Z,27.40
2018-06-05T14:01:18.524Z,27.60
2018-06-05T14:03:46.073Z,27.60
2018-06-05T14:06:13.645Z,27.50
2018-06-05T14:08:41.202Z,27.50
2018-06-05T14:11:20.999Z,27.70
2018-06-05T14:13:48.525Z,27.90
2018-06-05T14:16:16.082Z,27.90
2018-06-05T14:18:43.621Z,27.70
2018-06-05T14:21:11.166Z,27.60
2018-06-05T14:23:38.710Z,27.60
2018-06-05T14:26:20.958Z,27.60
2018-06-05T14:28:59.240Z,27.60
2018-06-05T14:31:32.290Z,27.30
2018-06-05T14:34:05.674Z,27.10
2018-06-05T14:36:33.245Z,27.10
2018-06-05T14:39:00.781Z,26.90
2018-06-05T14:41:28.333Z,26.70
2018-06-05T14:43:55.869Z,26.70
2018-06-05T14:46:34.118Z,26.70
2018-06-05T14:49:01.655Z,26.70
2018-06-05T14:51:29.220Z,26.90
2018-06-05T14:53:56.769Z,26.90
2018-06-05T14:56:24.331Z,26.70
2018-06-05T15:01:19.501Z,26.70
2018-06-05T15:03:47.033Z,26.60
2018-06-05T15:06:14.581Z,26.60
2018-06-05T15:08:42.121Z,26.70
2018-06-05T15:11:09.669Z,26.60
2018-06-05T15:13:37.205Z,26.50
2018-06-05T15:16:04.819Z,26.90
2018-06-05T15:18:32.385Z,27.50
2018-06-05T15:20:59.913Z,28.30
2018-06-05T15:23:27.451Z,29.20
2018-06-05T15:25:54.981Z,30.00
2018-06-05T15:28:22.569Z,30.50
2018-06-05T15:30:50.132Z,30.50
2018-06-05T15:33:17.674Z,30.50
2018-06-05T15:35:45.213Z,30.50
2018-06-05T15:38:12.763Z,30.80
2018-06-05T15:43:07.918Z,31.60
2018-06-05T15:45:35.479Z,31.60
2018-06-05T15:48:03.037Z,31.30
2018-06-05T15:50:30.622Z,30.60
2018-06-05T15:52:58.146Z,30.30
2018-06-05T15:55:25.702Z,30.00
2018-06-05T15:57:53.261Z,29.90
2018-06-05T16:00:20.832Z,29.50
2018-06-05T16:02:48.412Z,29.00
2018-06-05T16:05:16.117Z,28.60
2018-06-05T16:07:44.182Z,28.40
2018-06-05T16:10:12.059Z,28.20
2018-06-05T16:12:39.814Z,28.30
2018-06-05T16:15:07.582Z,28.20
2018-06-05T16:20:03.257Z,28.40
2018-06-05T16:22:31.035Z,28.20
2018-06-05T16:24:58.882Z,28.00
2018-06-05T16:27:26.743Z,27.80
2018-06-05T16:29:54.610Z,27.50
2018-06-05T16:32:22.439Z,27.20
2018-06-05T16:34:50.286Z,27.00
2018-06-05T16:37:18.174Z,26.70
2018-06-05T16:39:49.019Z,26.60
2018-06-05T16:42:16.871Z,26.40
2018-06-05T16:44:44.687Z,26.30
2018-06-05T16:47:12.527Z,26.20
2018-06-05T16:49:40.371Z,25.90
2018-06-05T16:52:08.211Z,25.80
2018-06-05T16:54:36.016Z,25.60
2018-06-05T16:57:03.857Z,25.50
2018-06-05T16:59:31.741Z,25.30
2018-06-05T17:01:59.538Z,25.10
2018-06-05T17:04:27.451Z,25.00
2018-06-05T17:06:55.316Z,24.90
2018-06-05T17:09:23.188Z,24.90
2018-06-05T17:11:51.074Z,24.80
2018-06-05T17:14:18.901Z,24.70
2018-06-05T17:16:46.747Z,24.60
2018-06-05T17:19:14.577Z,24.50
2018-06-05T17:21:42.414Z,24.50
2018-06-05T17:24:10.631Z,24.40
2018-06-05T17:26:51.526Z,24.40
2018-06-05T17:29:19.435Z,24.40
2018-06-05T17:31:47.346Z,24.40
2018-06-05T17:34:15.286Z,24.40
2018-06-05T17:36:43.138Z,24.50
2018-06-05T17:39:10.998Z,24.60
2018-06-05T17:41:38.871Z,24.70
2018-06-05T17:44:06.715Z,24.70
2018-06-05T17:46:34.599Z,24.80
2018-06-05T17:49:02.401Z,24.80
2018-06-05T17:51:30.219Z,24.80
2018-06-05T17:53:58.039Z,24.80
2018-06-05T17:56:29.774Z,24.70
2018-06-05T17:59:01.569Z,24.70
2018-06-05T18:01:30.506Z,24.70
2018-06-05T18:03:58.321Z,24.60
2018-06-05T18:06:26.206Z,24.50
2018-06-05T18:08:54.034Z,24.40
2018-06-05T18:11:21.894Z,24.30
2018-06-05T18:13:49.787Z,24.10
2018-06-05T18:18:45.490Z,23.70
2018-06-05T18:21:13.355Z,23.50
2018-06-05T18:23:41.174Z,23.30
2018-06-05T18:26:08.987Z,23.00
2018-06-05T18:28:36.880Z,22.80
2018-06-05T18:31:04.795Z,22.50
2018-06-05T18:33:32.724Z,22.20
2018-06-05T18:38:28.447Z,21.60
2018-06-05T18:40:56.294Z,21.30
2018-06-05T18:43:24.173Z,21.00
2018-06-05T18:45:52.016Z,20.70
2018-06-05T18:48:19.849Z,20.50
2018-06-05T18:50:47.743Z,20.20
2018-06-05T18:53:15.623Z,20.00
2018-06-05T18:55:49.990Z,19.80
2018-06-05T18:58:17.875Z,19.60
2018-06-05T19:00:45.766Z,19.30
2018-06-05T19:03:13.522Z,19.20
2018-06-05T19:05:41.378Z,19.00
2018-06-05T19:08:09.228Z,18.80
2018-06-05T19:10:40.709Z,18.60
2018-06-05T19:13:08.603Z,18.50
2018-06-05T19:15:36.504Z,18.30
2018-06-05T19:18:04.617Z,18.10
2018-06-05T19:20:32.502Z,18.00
2018-06-05T19:23:00.325Z,17.80
2018-06-05T19:27:56.094Z,17.50
2018-06-05T19:30:24.057Z,17.40
2018-06-05T19:32:51.970Z,17.40
2018-06-05T19:35:19.790Z,17.30
2018-06-05T19:37:47.674Z,17.20
2018-06-05T19:40:15.551Z,17.10
2018-06-05T19:42:43.395Z,17.00
2018-06-05T19:45:11.191Z,16.90
2018-06-05T19:47:39.102Z,16.90
2018-06-05T19:50:06.974Z,16.80
2018-06-05T19:52:34.848Z,16.80
2018-06-05T19:55:02.691Z,16.70
2018-06-05T19:57:30.567Z,16.70
2018-06-05T19:59:58.375Z,16.70
2018-06-05T20:02:26.219Z,16.60
2018-06-05T20:04:54.115Z,16.60
2018-06-05T20:07:21.982Z,16.50
2018-06-05T20:09:49.895Z,16.40
2018-06-05T20:12:17.730Z,16.30
2018-06-05T20:14:45.599Z,16.20
2018-06-05T20:17:13.466Z,16.10
2018-06-05T20:19:41.266Z,16.10
2018-06-05T20:22:09.062Z,16.00
2018-06-05T20:24:36.933Z,15.90
2018-06-05T20:27:04.810Z,15.80
2018-06-05T20:29:32.671Z,15.80
2018-06-05T20:32:00.523Z,15.70
2018-06-05T20:34:28.434Z,15.60
2018-06-05T20:36:56.303Z,15.50
2018-06-05T20:39:24.200Z,15.50
2018-06-05T20:41:52.023Z,15.50
2018-06-05T20:44:19.845Z,15.50
2018-06-05T20:46:47.617Z,15.50
2018-06-05T20:49:15.456Z,15.50
2018-06-05T20:51:43.271Z,15.50
2018-06-05T20:54:11.064Z,15.50
2018-06-05T20:56:38.906Z,15.50
2018-06-05T20:59:06.794Z,15.50
2018-06-05T21:01:34.693Z,15.50
2018-06-05T21:04:02.579Z,15.50
2018-06-05T21:06:30.468Z,15.50
2018-06-05T21:08:58.301Z,15.50
2018-06-05T21:11:26.145Z,15.40
2018-06-05T21:13:57.213Z,15.40
2018-06-05T21:18:52.873Z,15.30
2018-06-05T21:21:20.751Z,15.30
2018-06-05T21:23:48.558Z,15.20
2018-06-05T21:26:16.369Z,15.20
2018-06-05T21:28:44.241Z,15.10
2018-06-05T21:31:12.114Z,15.10
2018-06-05T21:33:40.008Z,15.00
2018-06-05T21:36:07.845Z,15.00
2018-06-05T21:38:35.747Z,15.00
2018-06-05T21:41:03.687Z,14.90
2018-06-05T21:43:31.597Z,14.90
2018-06-05T21:45:59.479Z,14.80
2018-06-05T21:48:27.319Z,14.80
2018-06-05T21:50:58.405Z,14.70
2018-06-05T21:53:39.378Z,14.60
2018-06-05T21:56:17.635Z,14.60
2018-06-05T22:01:51.914Z,14.50
2018-06-05T22:04:25.266Z,14.50
2018-06-05T22:07:19.645Z,14.50
2018-06-05T22:10:04.365Z,14.50
2018-06-05T22:12:32.186Z,14.50
2018-06-05T22:15:07.606Z,14.40
2018-06-05T22:17:35.449Z,14.40
2018-06-05T22:20:03.318Z,14.40
2018-06-05T22:22:31.218Z,14.30
2018-06-05T22:24:59.079Z,14.30
2018-06-05T22:27:33.410Z,14.30
2018-06-05T22:33:08.071Z,14.40
2018-06-05T22:35:35.922Z,14.30
2018-06-05T22:38:03.783Z,14.30
2018-06-05T22:40:31.608Z,14.30
2018-06-05T22:42:59.505Z,14.20
2018-06-05T22:45:27.334Z,14.20
2018-06-05T22:47:55.178Z,14.20
2018-06-05T22:50:23.016Z,14.20
2018-06-05T22:52:50.867Z,14.20
2018-06-05T22:55:18.799Z,14.20
2018-06-05T22:57:46.595Z,14.10
2018-06-05T23:00:30.428Z,14.10
2018-06-05T23:02:58.294Z,14.10
2018-06-05T23:05:26.147Z,14.10
2018-06-05T23:07:54.038Z,14.10
2018-06-05T23:10:21.873Z,14.10
2018-06-05T23:12:49.766Z,14.00
2018-06-05T23:15:17.618Z,14.00
2018-06-05T23:17:46.191Z,13.90
2018-06-05T23:20:14.120Z,13.90
2018-06-05T23:22:42.043Z,13.90
2018-06-05T23:27:44.575Z,13.90
2018-06-05T23:30:12.454Z,13.90
2018-06-05T23:32:40.242Z,14.00
2018-06-05T23:35:08.119Z,14.00
2018-06-05T23:37:35.906Z,14.00
2018-06-05T23:40:04.151Z,14.00
2018-06-05T23:42:32.020Z,14.00
2018-06-05T23:44:59.850Z,13.90
2018-06-05T23:47:27.634Z,13.90
2018-06-05T23:49:55.491Z,13.90
2018-06-05T23:52:23.302Z,14.00
2018-06-05T23:54:51.167Z,14.00
2018-06-05T23:57:19.014Z,14.00
2018-06-05T23:59:46.857Z,13.90
